sensor_id;sensor_type;location;lat;lon;timestamp;P1;durP1;ratioP1;P2;durP2;ratioP2
5040;SDS011;2539;52.568;13.364;2022-12-08T00:02:23;14.13;;;7.67;;
5040;SDS011;2539;52.568;13.364;2022-12-08T00:04:49;11.20;;;8.13;;
5040;SDS011;2539;52.568;13.364;2022-12-08T00:07:34;13.90;;;7.53;;
5040;SDS011;2539;52.568;13.364;2022-12-08T00:10:21;11.07;;;7.87;;
5040;SDS011;2539;52.568;13.364;2022-12-08T00:12:48;10.27;;;7.07;;
5040;SDS011;2539;52.568;13.364;2022-12-08T00:15:14;12.23;;;8.80;;
5040;SDS011;2539;52.568;13.364;2022-12-08T00:17:43;12.70;;;7.70;;
5040;SDS011;2539;52.568;13.364;2022-12-08T00:20:10;16.10;;;8.23;;
5040;SDS011;2539;52.568;13.364;2022-12-08T00:22:36;17.03;;;7.70;;
5040;SDS011;2539;52.568;13.364;2022-12-08T00:25:05;16.40;;;7.97;;
5040;SDS011;2539;52.568;13.364;2022-12-08T00:27:32;12.20;;;7.57;;
5040;SDS011;2539;52.568;13.364;2022-12-08T00:29:58;11.03;;;7.37;;
5040;SDS011;2539;52.568;13.364;2022-12-08T00:32:24;10.80;;;8.07;;
5040;SDS011;2539;52.568;13.364;2022-12-08T00:34:51;11.37;;;7.60;;
5040;SDS011;2539;52.568;13.364;2022-12-08T00:37:17;10.87;;;7.13;;
5040;SDS011;2539;52.568;13.364;2022-12-08T00:39:43;10.60;;;7.57;;
5040;SDS011;2539;52.568;13.364;2022-12-08T00:42:10;13.10;;;7.27;;
5040;SDS011;2539;52.568;13.364;2022-12-08T00:44:42;9.97;;;7.23;;
5040;SDS011;2539;52.568;13.364;2022-12-08T00:47:09;14.73;;;7.77;;
5040;SDS011;2539;52.568;13.364;2022-12-08T00:49:36;10.10;;;7.57;;
5040;SDS011;2539;52.568;13.364;2022-12-08T00:52:02;13.67;;;8.53;;
5040;SDS011;2539;52.568;13.364;2022-12-08T00:54:28;12.50;;;7.83;;
5040;SDS011;2539;52.568;13.364;2022-12-08T00:56:55;12.53;;;8.87;;
5040;SDS011;2539;52.568;13.364;2022-12-08T00:59:21;11.73;;;7.20;;
5040;SDS011;2539;52.568;13.364;2022-12-08T01:01:47;14.33;;;7.67;;
5040;SDS011;2539;52.568;13.364;2022-12-08T01:04:22;10.77;;;7.77;;
5040;SDS011;2539;52.568;13.364;2022-12-08T01:06:49;12.90;;;8.40;;
5040;SDS011;2539;52.568;13.364;2022-12-08T01:09:17;11.57;;;8.00;;
5040;SDS011;2539;52.568;13.364;2022-12-08T01:11:43;11.90;;;8.30;;
5040;SDS011;2539;52.568;13.364;2022-12-08T01:14:11;11.40;;;7.90;;
5040;SDS011;2539;52.568;13.364;2022-12-08T01:16:38;11.33;;;7.97;;
5040;SDS011;2539;52.568;13.364;2022-12-08T01:19:06;12.60;;;8.10;;
5040;SDS011;2539;52.568;13.364;2022-12-08T01:21:32;9.83;;;7.80;;
5040;SDS011;2539;52.568;13.364;2022-12-08T01:23:59;9.57;;;7.60;;
5040;SDS011;2539;52.568;13.364;2022-12-08T01:26:25;12.97;;;8.17;;
5040;SDS011;2539;52.568;13.364;2022-12-08T01:28:52;14.90;;;9.50;;
5040;SDS011;2539;52.568;13.364;2022-12-08T01:31:19;16.20;;;9.23;;
5040;SDS011;2539;52.568;13.364;2022-12-08T01:33:46;11.70;;;9.30;;
5040;SDS011;2539;52.568;13.364;2022-12-08T01:36:20;13.13;;;9.03;;
5040;SDS011;2539;52.568;13.364;2022-12-08T01:38:49;11.77;;;9.37;;
5040;SDS011;2539;52.568;13.364;2022-12-08T01:41:17;14.47;;;9.70;;
5040;SDS011;2539;52.568;13.364;2022-12-08T01:43:50;20.60;;;9.13;;
5040;SDS011;2539;52.568;13.364;2022-12-08T01:46:33;13.67;;;8.57;;
5040;SDS011;2539;52.568;13.364;2022-12-08T01:49:17;11.13;;;8.90;;
5040;SDS011;2539;52.568;13.364;2022-12-08T01:51:56;13.40;;;8.10;;
5040;SDS011;2539;52.568;13.364;2022-12-08T01:54:28;12.30;;;9.20;;
5040;SDS011;2539;52.568;13.364;2022-12-08T01:57:00;17.30;;;9.50;;
5040;SDS011;2539;52.568;13.364;2022-12-08T01:59:40;14.77;;;8.47;;
5040;SDS011;2539;52.568;13.364;2022-12-08T02:02:11;11.47;;;8.17;;
5040;SDS011;2539;52.568;13.364;2022-12-08T02:04:38;12.00;;;8.23;;
5040;SDS011;2539;52.568;13.364;2022-12-08T02:07:04;10.60;;;8.53;;
5040;SDS011;2539;52.568;13.364;2022-12-08T02:09:32;11.43;;;8.13;;
5040;SDS011;2539;52.568;13.364;2022-12-08T02:12:00;13.87;;;8.40;;
5040;SDS011;2539;52.568;13.364;2022-12-08T02:14:27;13.73;;;7.97;;
5040;SDS011;2539;52.568;13.364;2022-12-08T02:17:02;8.60;;;7.40;;
5040;SDS011;2539;52.568;13.364;2022-12-08T02:20:06;10.33;;;7.17;;
5040;SDS011;2539;52.568;13.364;2022-12-08T02:25:39;14.53;;;8.20;;
5040;SDS011;2539;52.568;13.364;2022-12-08T02:31:04;12.63;;;8.70;;
5040;SDS011;2539;52.568;13.364;2022-12-08T02:36:49;10.87;;;8.20;;
5040;SDS011;2539;52.568;13.364;2022-12-08T02:42:26;12.10;;;9.80;;
5040;SDS011;2539;52.568;13.364;2022-12-08T02:45:08;10.83;;;8.13;;
5040;SDS011;2539;52.568;13.364;2022-12-08T02:47:36;10.97;;;7.80;;
5040;SDS011;2539;52.568;13.364;2022-12-08T02:50:03;10.40;;;8.33;;
5040;SDS011;2539;52.568;13.364;2022-12-08T02:54:58;10.80;;;7.97;;
5040;SDS011;2539;52.568;13.364;2022-12-08T03:00:16;11.27;;;8.53;;
5040;SDS011;2539;52.568;13.364;2022-12-08T03:05:54;10.23;;;7.40;;
5040;SDS011;2539;52.568;13.364;2022-12-08T03:11:30;10.80;;;8.17;;
5040;SDS011;2539;52.568;13.364;2022-12-08T03:14:02;10.87;;;7.03;;
5040;SDS011;2539;52.568;13.364;2022-12-08T03:16:31;7.97;;;7.17;;
5040;SDS011;2539;52.568;13.364;2022-12-08T03:19:08;8.20;;;7.10;;
5040;SDS011;2539;52.568;13.364;2022-12-08T03:21:56;9.80;;;7.00;;
5040;SDS011;2539;52.568;13.364;2022-12-08T03:24:29;10.17;;;6.50;;
5040;SDS011;2539;52.568;13.364;2022-12-08T03:27:02;6.83;;;5.43;;
5040;SDS011;2539;52.568;13.364;2022-12-08T03:29:32;8.57;;;6.50;;
5040;SDS011;2539;52.568;13.364;2022-12-08T03:32:00;13.33;;;7.20;;
5040;SDS011;2539;52.568;13.364;2022-12-08T03:34:34;7.43;;;6.63;;
5040;SDS011;2539;52.568;13.364;2022-12-08T03:37:01;8.27;;;6.23;;
5040;SDS011;2539;52.568;13.364;2022-12-08T03:39:26;9.93;;;6.27;;
5040;SDS011;2539;52.568;13.364;2022-12-08T03:41:53;7.43;;;5.53;;
5040;SDS011;2539;52.568;13.364;2022-12-08T03:44:19;7.67;;;5.90;;
5040;SDS011;2539;52.568;13.364;2022-12-08T03:46:45;11.33;;;6.07;;
5040;SDS011;2539;52.568;13.364;2022-12-08T03:49:11;11.10;;;6.37;;
5040;SDS011;2539;52.568;13.364;2022-12-08T03:51:36;9.87;;;5.23;;
5040;SDS011;2539;52.568;13.364;2022-12-08T03:54:02;5.80;;;5.20;;
5040;SDS011;2539;52.568;13.364;2022-12-08T03:56:34;6.60;;;5.20;;
5040;SDS011;2539;52.568;13.364;2022-12-08T03:59:02;9.67;;;6.70;;
5040;SDS011;2539;52.568;13.364;2022-12-08T04:01:29;9.50;;;5.93;;
5040;SDS011;2539;52.568;13.364;2022-12-08T04:03:56;9.30;;;6.97;;
5040;SDS011;2539;52.568;13.364;2022-12-08T04:06:23;9.30;;;5.93;;
5040;SDS011;2539;52.568;13.364;2022-12-08T04:08:50;8.93;;;6.60;;
5040;SDS011;2539;52.568;13.364;2022-12-08T04:11:17;9.47;;;6.50;;
5040;SDS011;2539;52.568;13.364;2022-12-08T04:13:43;9.20;;;6.87;;
5040;SDS011;2539;52.568;13.364;2022-12-08T04:16:17;11.90;;;6.90;;
5040;SDS011;2539;52.568;13.364;2022-12-08T04:18:45;9.37;;;7.30;;
5040;SDS011;2539;52.568;13.364;2022-12-08T04:21:12;9.30;;;7.87;;
5040;SDS011;2539;52.568;13.364;2022-12-08T04:23:39;10.37;;;7.77;;
5040;SDS011;2539;52.568;13.364;2022-12-08T04:26:05;11.40;;;7.00;;
5040;SDS011;2539;52.568;13.364;2022-12-08T04:28:32;9.20;;;7.50;;
5040;SDS011;2539;52.568;13.364;2022-12-08T04:30:58;9.30;;;7.60;;
5040;SDS011;2539;52.568;13.364;2022-12-08T04:33:25;10.47;;;7.90;;
5040;SDS011;2539;52.568;13.364;2022-12-08T04:35:51;12.10;;;9.13;;
5040;SDS011;2539;52.568;13.364;2022-12-08T04:38:17;10.50;;;8.03;;
5040;SDS011;2539;52.568;13.364;2022-12-08T04:40:43;11.20;;;8.37;;
5040;SDS011;2539;52.568;13.364;2022-12-08T04:43:10;8.90;;;7.20;;
5040;SDS011;2539;52.568;13.364;2022-12-08T04:45:38;10.80;;;8.70;;
5040;SDS011;2539;52.568;13.364;2022-12-08T04:48:05;10.00;;;8.17;;
5040;SDS011;2539;52.568;13.364;2022-12-08T04:50:31;10.80;;;8.90;;
5040;SDS011;2539;52.568;13.364;2022-12-08T04:52:57;10.33;;;8.50;;
5040;SDS011;2539;52.568;13.364;2022-12-08T04:55:24;10.97;;;8.57;;
5040;SDS011;2539;52.568;13.364;2022-12-08T04:57:50;9.70;;;8.10;;
5040;SDS011;2539;52.568;13.364;2022-12-08T05:00:16;11.80;;;8.53;;
5040;SDS011;2539;52.568;13.364;2022-12-08T05:02:43;12.73;;;9.90;;
5040;SDS011;2539;52.568;13.364;2022-12-08T05:05:09;10.70;;;8.90;;
5040;SDS011;2539;52.568;13.364;2022-12-08T05:07:35;14.17;;;9.90;;
5040;SDS011;2539;52.568;13.364;2022-12-08T05:10:02;15.37;;;10.80;;
5040;SDS011;2539;52.568;13.364;2022-12-08T05:12:29;14.37;;;11.23;;
5040;SDS011;2539;52.568;13.364;2022-12-08T05:14:55;15.13;;;10.37;;
5040;SDS011;2539;52.568;13.364;2022-12-08T05:17:21;17.10;;;10.80;;
5040;SDS011;2539;52.568;13.364;2022-12-08T05:19:47;15.43;;;11.20;;
5040;SDS011;2539;52.568;13.364;2022-12-08T05:22:14;16.00;;;10.50;;
5040;SDS011;2539;52.568;13.364;2022-12-08T05:24:39;15.37;;;10.03;;
5040;SDS011;2539;52.568;13.364;2022-12-08T05:27:05;16.20;;;11.10;;
5040;SDS011;2539;52.568;13.364;2022-12-08T05:29:31;14.83;;;11.20;;
5040;SDS011;2539;52.568;13.364;2022-12-08T05:31:56;13.40;;;10.50;;
5040;SDS011;2539;52.568;13.364;2022-12-08T05:34:23;16.40;;;10.83;;
5040;SDS011;2539;52.568;13.364;2022-12-08T05:36:49;16.40;;;10.73;;
5040;SDS011;2539;52.568;13.364;2022-12-08T05:39:15;21.73;;;12.10;;
5040;SDS011;2539;52.568;13.364;2022-12-08T05:41:41;17.63;;;10.43;;
5040;SDS011;2539;52.568;13.364;2022-12-08T05:44:08;17.00;;;12.13;;
5040;SDS011;2539;52.568;13.364;2022-12-08T05:46:34;19.33;;;12.20;;
5040;SDS011;2539;52.568;13.364;2022-12-08T05:49:01;22.63;;;15.17;;
5040;SDS011;2539;52.568;13.364;2022-12-08T05:51:28;18.10;;;12.33;;
5040;SDS011;2539;52.568;13.364;2022-12-08T05:53:55;20.27;;;12.20;;
5040;SDS011;2539;52.568;13.364;2022-12-08T05:56:22;20.23;;;12.63;;
5040;SDS011;2539;52.568;13.364;2022-12-08T05:58:49;20.63;;;12.23;;
5040;SDS011;2539;52.568;13.364;2022-12-08T06:01:17;16.60;;;12.30;;
5040;SDS011;2539;52.568;13.364;2022-12-08T06:03:47;22.57;;;14.37;;
5040;SDS011;2539;52.568;13.364;2022-12-08T06:06:13;22.93;;;14.37;;
5040;SDS011;2539;52.568;13.364;2022-12-08T06:08:40;17.87;;;12.80;;
5040;SDS011;2539;52.568;13.364;2022-12-08T06:11:06;20.23;;;12.80;;
5040;SDS011;2539;52.568;13.364;2022-12-08T06:13:32;19.00;;;13.57;;
5040;SDS011;2539;52.568;13.364;2022-12-08T06:16:03;21.83;;;14.27;;
5040;SDS011;2539;52.568;13.364;2022-12-08T06:18:30;21.87;;;14.43;;
5040;SDS011;2539;52.568;13.364;2022-12-08T06:21:04;25.33;;;14.93;;
5040;SDS011;2539;52.568;13.364;2022-12-08T06:23:31;23.10;;;14.70;;
5040;SDS011;2539;52.568;13.364;2022-12-08T06:26:00;25.70;;;15.50;;
5040;SDS011;2539;52.568;13.364;2022-12-08T06:28:28;24.23;;;15.00;;
5040;SDS011;2539;52.568;13.364;2022-12-08T06:30:55;23.33;;;14.80;;
5040;SDS011;2539;52.568;13.364;2022-12-08T06:33:22;23.13;;;13.30;;
5040;SDS011;2539;52.568;13.364;2022-12-08T06:35:49;23.50;;;14.40;;
5040;SDS011;2539;52.568;13.364;2022-12-08T06:38:16;30.03;;;15.50;;
5040;SDS011;2539;52.568;13.364;2022-12-08T06:40:43;26.80;;;15.33;;
5040;SDS011;2539;52.568;13.364;2022-12-08T06:43:09;23.37;;;14.50;;
5040;SDS011;2539;52.568;13.364;2022-12-08T06:45:36;19.40;;;13.83;;
5040;SDS011;2539;52.568;13.364;2022-12-08T06:48:04;26.03;;;16.37;;
5040;SDS011;2539;52.568;13.364;2022-12-08T06:50:31;28.63;;;15.97;;
5040;SDS011;2539;52.568;13.364;2022-12-08T06:52:59;22.47;;;13.70;;
5040;SDS011;2539;52.568;13.364;2022-12-08T06:55:25;20.83;;;13.90;;
5040;SDS011;2539;52.568;13.364;2022-12-08T06:57:52;22.17;;;14.50;;
5040;SDS011;2539;52.568;13.364;2022-12-08T07:00:18;23.03;;;14.53;;
5040;SDS011;2539;52.568;13.364;2022-12-08T07:02:45;22.80;;;15.17;;
5040;SDS011;2539;52.568;13.364;2022-12-08T07:05:11;25.23;;;15.70;;
5040;SDS011;2539;52.568;13.364;2022-12-08T07:07:37;24.03;;;15.50;;
5040;SDS011;2539;52.568;13.364;2022-12-08T07:10:04;23.73;;;15.63;;
5040;SDS011;2539;52.568;13.364;2022-12-08T07:12:31;22.60;;;14.77;;
5040;SDS011;2539;52.568;13.364;2022-12-08T07:14:58;22.40;;;13.90;;
5040;SDS011;2539;52.568;13.364;2022-12-08T07:17:24;24.80;;;14.90;;
5040;SDS011;2539;52.568;13.364;2022-12-08T07:19:50;24.03;;;15.77;;
5040;SDS011;2539;52.568;13.364;2022-12-08T07:22:16;23.93;;;15.40;;
5040;SDS011;2539;52.568;13.364;2022-12-08T07:24:43;22.30;;;15.10;;
5040;SDS011;2539;52.568;13.364;2022-12-08T07:27:09;22.00;;;13.87;;
5040;SDS011;2539;52.568;13.364;2022-12-08T07:29:36;23.43;;;15.70;;
5040;SDS011;2539;52.568;13.364;2022-12-08T07:32:02;21.40;;;14.53;;
5040;SDS011;2539;52.568;13.364;2022-12-08T07:34:28;22.53;;;13.30;;
5040;SDS011;2539;52.568;13.364;2022-12-08T07:36:55;26.40;;;14.07;;
5040;SDS011;2539;52.568;13.364;2022-12-08T07:39:21;21.23;;;13.27;;
5040;SDS011;2539;52.568;13.364;2022-12-08T07:41:47;19.47;;;12.70;;
5040;SDS011;2539;52.568;13.364;2022-12-08T07:44:13;22.60;;;13.30;;
5040;SDS011;2539;52.568;13.364;2022-12-08T07:46:40;19.67;;;12.90;;
5040;SDS011;2539;52.568;13.364;2022-12-08T07:49:06;19.60;;;12.83;;
5040;SDS011;2539;52.568;13.364;2022-12-08T07:51:32;22.40;;;13.93;;
5040;SDS011;2539;52.568;13.364;2022-12-08T07:53:58;25.53;;;12.90;;
5040;SDS011;2539;52.568;13.364;2022-12-08T07:56:25;19.80;;;12.47;;
5040;SDS011;2539;52.568;13.364;2022-12-08T07:58:51;20.97;;;12.27;;
5040;SDS011;2539;52.568;13.364;2022-12-08T08:01:19;17.33;;;12.27;;
5040;SDS011;2539;52.568;13.364;2022-12-08T08:03:48;23.50;;;12.50;;
5040;SDS011;2539;52.568;13.364;2022-12-08T08:06:15;17.20;;;13.80;;
5040;SDS011;2539;52.568;13.364;2022-12-08T08:08:42;19.80;;;13.30;;
5040;SDS011;2539;52.568;13.364;2022-12-08T08:11:08;20.63;;;12.20;;
5040;SDS011;2539;52.568;13.364;2022-12-08T08:13:34;17.10;;;12.23;;
5040;SDS011;2539;52.568;13.364;2022-12-08T08:16:05;15.80;;;10.97;;
5040;SDS011;2539;52.568;13.364;2022-12-08T08:18:33;20.63;;;13.00;;
5040;SDS011;2539;52.568;13.364;2022-12-08T08:21:00;18.27;;;12.10;;
5040;SDS011;2539;52.568;13.364;2022-12-08T08:23:27;20.23;;;11.47;;
5040;SDS011;2539;52.568;13.364;2022-12-08T08:25:53;16.60;;;12.20;;
5040;SDS011;2539;52.568;13.364;2022-12-08T08:28:20;16.57;;;11.73;;
5040;SDS011;2539;52.568;13.364;2022-12-08T08:30:46;14.90;;;11.53;;
5040;SDS011;2539;52.568;13.364;2022-12-08T08:33:13;20.47;;;12.70;;
5040;SDS011;2539;52.568;13.364;2022-12-08T08:35:39;19.97;;;12.97;;
5040;SDS011;2539;52.568;13.364;2022-12-08T08:38:07;18.63;;;11.60;;
5040;SDS011;2539;52.568;13.364;2022-12-08T08:40:33;20.63;;;11.13;;
5040;SDS011;2539;52.568;13.364;2022-12-08T08:43:00;18.33;;;12.00;;
5040;SDS011;2539;52.568;13.364;2022-12-08T08:45:27;20.90;;;11.97;;
5040;SDS011;2539;52.568;13.364;2022-12-08T08:47:53;17.70;;;12.30;;
5040;SDS011;2539;52.568;13.364;2022-12-08T08:50:19;15.57;;;11.20;;
5040;SDS011;2539;52.568;13.364;2022-12-08T08:52:45;15.30;;;11.40;;
5040;SDS011;2539;52.568;13.364;2022-12-08T08:55:12;17.90;;;11.90;;
5040;SDS011;2539;52.568;13.364;2022-12-08T08:57:38;17.97;;;13.00;;
5040;SDS011;2539;52.568;13.364;2022-12-08T09:00:05;20.80;;;12.00;;
5040;SDS011;2539;52.568;13.364;2022-12-08T09:02:35;19.43;;;11.67;;
5040;SDS011;2539;52.568;13.364;2022-12-08T09:05:01;19.87;;;13.70;;
5040;SDS011;2539;52.568;13.364;2022-12-08T09:07:27;16.83;;;11.27;;
5040;SDS011;2539;52.568;13.364;2022-12-08T09:09:53;15.60;;;10.83;;
5040;SDS011;2539;52.568;13.364;2022-12-08T09:12:19;18.40;;;10.77;;
5040;SDS011;2539;52.568;13.364;2022-12-08T09:14:45;14.53;;;12.40;;
5040;SDS011;2539;52.568;13.364;2022-12-08T09:17:12;18.13;;;11.00;;
5040;SDS011;2539;52.568;13.364;2022-12-08T09:19:38;17.70;;;11.10;;
5040;SDS011;2539;52.568;13.364;2022-12-08T09:22:04;16.30;;;10.67;;
5040;SDS011;2539;52.568;13.364;2022-12-08T09:24:30;18.13;;;11.10;;
5040;SDS011;2539;52.568;13.364;2022-12-08T09:26:57;18.90;;;11.60;;
5040;SDS011;2539;52.568;13.364;2022-12-08T09:29:23;16.93;;;11.63;;
5040;SDS011;2539;52.568;13.364;2022-12-08T09:31:50;18.47;;;12.20;;
5040;SDS011;2539;52.568;13.364;2022-12-08T09:34:16;15.13;;;11.57;;
5040;SDS011;2539;52.568;13.364;2022-12-08T09:36:42;14.50;;;11.93;;
5040;SDS011;2539;52.568;13.364;2022-12-08T09:39:09;18.37;;;11.63;;
5040;SDS011;2539;52.568;13.364;2022-12-08T09:41:36;17.10;;;11.30;;
5040;SDS011;2539;52.568;13.364;2022-12-08T09:47:24;19.33;;;13.03;;
5040;SDS011;2539;52.568;13.364;2022-12-08T09:50:13;17.33;;;12.13;;
5040;SDS011;2539;52.568;13.364;2022-12-08T09:52:46;16.57;;;11.87;;
5040;SDS011;2539;52.568;13.364;2022-12-08T09:55:40;15.33;;;11.07;;
5040;SDS011;2539;52.568;13.364;2022-12-08T09:58:09;19.47;;;11.60;;
5040;SDS011;2539;52.568;13.364;2022-12-08T10:00:44;18.63;;;11.67;;
5040;SDS011;2539;52.568;13.364;2022-12-08T10:03:11;15.43;;;11.00;;
5040;SDS011;2539;52.568;13.364;2022-12-08T10:05:40;20.43;;;11.50;;
5040;SDS011;2539;52.568;13.364;2022-12-08T10:08:18;16.77;;;12.00;;
5040;SDS011;2539;52.568;13.364;2022-12-08T10:10:55;15.77;;;11.37;;
5040;SDS011;2539;52.568;13.364;2022-12-08T10:13:37;20.10;;;11.00;;
5040;SDS011;2539;52.568;13.364;2022-12-08T10:16:23;15.93;;;11.90;;
5040;SDS011;2539;52.568;13.364;2022-12-08T10:21:49;16.53;;;10.80;;
5040;SDS011;2539;52.568;13.364;2022-12-08T10:24:21;18.43;;;11.80;;
5040;SDS011;2539;52.568;13.364;2022-12-08T10:27:07;16.43;;;10.67;;
5040;SDS011;2539;52.568;13.364;2022-12-08T10:29:36;16.50;;;10.07;;
5040;SDS011;2539;52.568;13.364;2022-12-08T10:32:12;14.77;;;11.57;;
5040;SDS011;2539;52.568;13.364;2022-12-08T10:35:01;16.30;;;10.97;;
5040;SDS011;2539;52.568;13.364;2022-12-08T10:37:32;13.90;;;10.20;;
5040;SDS011;2539;52.568;13.364;2022-12-08T10:39:59;18.00;;;10.97;;
5040;SDS011;2539;52.568;13.364;2022-12-08T10:42:42;16.83;;;10.50;;
5040;SDS011;2539;52.568;13.364;2022-12-08T10:45:15;13.07;;;9.67;;
5040;SDS011;2539;52.568;13.364;2022-12-08T10:48:04;16.80;;;11.30;;
5040;SDS011;2539;52.568;13.364;2022-12-08T10:50:42;15.63;;;11.10;;
5040;SDS011;2539;52.568;13.364;2022-12-08T10:53:29;13.63;;;10.23;;
5040;SDS011;2539;52.568;13.364;2022-12-08T11:03:58;13.93;;;9.70;;
5040;SDS011;2539;52.568;13.364;2022-12-08T11:08:54;14.13;;;9.53;;
5040;SDS011;2539;52.568;13.364;2022-12-08T11:11:35;11.77;;;8.30;;
5040;SDS011;2539;52.568;13.364;2022-12-08T11:14:07;13.83;;;8.43;;
5040;SDS011;2539;52.568;13.364;2022-12-08T11:16:37;13.30;;;9.83;;
5040;SDS011;2539;52.568;13.364;2022-12-08T11:19:11;14.07;;;8.60;;
5040;SDS011;2539;52.568;13.364;2022-12-08T11:21:41;17.67;;;8.90;;
5040;SDS011;2539;52.568;13.364;2022-12-08T11:24:17;13.43;;;9.33;;
5040;SDS011;2539;52.568;13.364;2022-12-08T11:26:50;10.60;;;8.53;;
5040;SDS011;2539;52.568;13.364;2022-12-08T11:29:29;13.87;;;8.50;;
5040;SDS011;2539;52.568;13.364;2022-12-08T11:35:36;12.47;;;10.53;;
5040;SDS011;2539;52.568;13.364;2022-12-08T11:37:45;9.10;;;7.80;;
5040;SDS011;2539;52.568;13.364;2022-12-08T11:43:07;13.23;;;9.53;;
5040;SDS011;2539;52.568;13.364;2022-12-08T11:46:16;11.20;;;9.00;;
5040;SDS011;2539;52.568;13.364;2022-12-08T11:51:19;10.10;;;8.37;;
5040;SDS011;2539;52.568;13.364;2022-12-08T11:54:17;12.40;;;8.57;;
5040;SDS011;2539;52.568;13.364;2022-12-08T11:56:56;10.57;;;9.27;;
5040;SDS011;2539;52.568;13.364;2022-12-08T12:01:53;12.17;;;10.10;;
5040;SDS011;2539;52.568;13.364;2022-12-08T12:04:21;10.70;;;9.10;;
5040;SDS011;2539;52.568;13.364;2022-12-08T12:07:15;13.70;;;10.50;;
5040;SDS011;2539;52.568;13.364;2022-12-08T12:13:04;15.20;;;10.90;;
5040;SDS011;2539;52.568;13.364;2022-12-08T12:18:43;16.03;;;11.50;;
5040;SDS011;2539;52.568;13.364;2022-12-08T12:24:07;16.77;;;11.90;;
5040;SDS011;2539;52.568;13.364;2022-12-08T12:26:53;14.83;;;10.60;;
5040;SDS011;2539;52.568;13.364;2022-12-08T12:29:24;13.17;;;10.50;;
5040;SDS011;2539;52.568;13.364;2022-12-08T12:31:56;13.50;;;11.33;;
5040;SDS011;2539;52.568;13.364;2022-12-08T12:34:35;14.73;;;10.73;;
5040;SDS011;2539;52.568;13.364;2022-12-08T12:37:10;17.30;;;10.50;;
5040;SDS011;2539;52.568;13.364;2022-12-08T12:48:30;18.90;;;11.53;;
5040;SDS011;2539;52.568;13.364;2022-12-08T12:50:43;14.70;;;11.10;;
5040;SDS011;2539;52.568;13.364;2022-12-08T13:03:39;12.63;;;9.80;;
5040;SDS011;2539;52.568;13.364;2022-12-08T13:06:20;15.60;;;10.80;;
5040;SDS011;2539;52.568;13.364;2022-12-08T13:08:49;11.60;;;10.33;;
5040;SDS011;2539;52.568;13.364;2022-12-08T13:11:20;11.87;;;9.70;;
5040;SDS011;2539;52.568;13.364;2022-12-08T13:13:57;11.70;;;9.10;;
5040;SDS011;2539;52.568;13.364;2022-12-08T13:16:32;9.90;;;8.53;;
5040;SDS011;2539;52.568;13.364;2022-12-08T13:19:02;12.00;;;8.10;;
5040;SDS011;2539;52.568;13.364;2022-12-08T13:21:36;11.13;;;9.77;;
5040;SDS011;2539;52.568;13.364;2022-12-08T13:26:48;8.10;;;6.00;;
5040;SDS011;2539;52.568;13.364;2022-12-08T13:29:31;7.63;;;6.93;;
5040;SDS011;2539;52.568;13.364;2022-12-08T13:34:29;9.80;;;7.67;;
5040;SDS011;2539;52.568;13.364;2022-12-08T13:42:06;8.40;;;7.20;;
5040;SDS011;2539;52.568;13.364;2022-12-08T13:44:46;12.33;;;7.53;;
5040;SDS011;2539;52.568;13.364;2022-12-08T13:47:31;8.73;;;7.37;;
5040;SDS011;2539;52.568;13.364;2022-12-08T13:50:20;9.83;;;8.40;;
5040;SDS011;2539;52.568;13.364;2022-12-08T13:55:43;11.97;;;7.80;;
5040;SDS011;2539;52.568;13.364;2022-12-08T13:58:19;9.90;;;8.43;;
5040;SDS011;2539;52.568;13.364;2022-12-08T14:00:55;10.60;;;8.63;;
5040;SDS011;2539;52.568;13.364;2022-12-08T14:03:21;17.07;;;9.73;;
5040;SDS011;2539;52.568;13.364;2022-12-08T14:05:48;9.40;;;8.30;;
5040;SDS011;2539;52.568;13.364;2022-12-08T14:08:18;12.30;;;9.23;;
5040;SDS011;2539;52.568;13.364;2022-12-08T14:10:59;9.53;;;8.40;;
5040;SDS011;2539;52.568;13.364;2022-12-08T14:13:28;9.87;;;8.57;;
5040;SDS011;2539;52.568;13.364;2022-12-08T14:15:56;11.77;;;9.43;;
5040;SDS011;2539;52.568;13.364;2022-12-08T14:18:26;12.27;;;9.30;;
5040;SDS011;2539;52.568;13.364;2022-12-08T14:21:02;28.47;;;17.33;;
5040;SDS011;2539;52.568;13.364;2022-12-08T14:23:34;30.17;;;19.70;;
5040;SDS011;2539;52.568;13.364;2022-12-08T14:26:02;19.23;;;14.00;;
5040;SDS011;2539;52.568;13.364;2022-12-08T14:28:32;19.70;;;14.20;;
5040;SDS011;2539;52.568;13.364;2022-12-08T14:30:59;49.20;;;32.10;;
5040;SDS011;2539;52.568;13.364;2022-12-08T14:33:26;19.27;;;14.13;;
5040;SDS011;2539;52.568;13.364;2022-12-08T14:35:53;19.33;;;13.17;;
5040;SDS011;2539;52.568;13.364;2022-12-08T14:38:21;12.13;;;10.43;;
5040;SDS011;2539;52.568;13.364;2022-12-08T14:41:05;14.03;;;9.87;;
5040;SDS011;2539;52.568;13.364;2022-12-08T14:43:33;12.00;;;9.10;;
5040;SDS011;2539;52.568;13.364;2022-12-08T14:46:00;13.30;;;10.57;;
5040;SDS011;2539;52.568;13.364;2022-12-08T14:51:04;12.30;;;10.37;;
5040;SDS011;2539;52.568;13.364;2022-12-08T14:53:39;12.90;;;10.63;;
5040;SDS011;2539;52.568;13.364;2022-12-08T14:56:30;11.50;;;9.50;;
5040;SDS011;2539;52.568;13.364;2022-12-08T14:59:46;12.30;;;10.10;;
5040;SDS011;2539;52.568;13.364;2022-12-08T15:01:52;13.80;;;9.97;;
5040;SDS011;2539;52.568;13.364;2022-12-08T15:04:34;12.67;;;9.50;;
5040;SDS011;2539;52.568;13.364;2022-12-08T15:07:04;16.40;;;12.10;;
5040;SDS011;2539;52.568;13.364;2022-12-08T15:09:42;14.70;;;11.87;;
5040;SDS011;2539;52.568;13.364;2022-12-08T15:20:05;40.10;;;25.70;;
5040;SDS011;2539;52.568;13.364;2022-12-08T15:22:51;20.30;;;13.90;;
5040;SDS011;2539;52.568;13.364;2022-12-08T15:25:19;18.10;;;13.30;;
5040;SDS011;2539;52.568;13.364;2022-12-08T15:27:46;13.70;;;11.33;;
5040;SDS011;2539;52.568;13.364;2022-12-08T15:30:12;16.23;;;13.87;;
5040;SDS011;2539;52.568;13.364;2022-12-08T15:32:39;14.53;;;11.40;;
5040;SDS011;2539;52.568;13.364;2022-12-08T15:35:06;13.10;;;10.30;;
5040;SDS011;2539;52.568;13.364;2022-12-08T15:37:33;14.60;;;11.10;;
5040;SDS011;2539;52.568;13.364;2022-12-08T15:39:59;11.93;;;9.67;;
5040;SDS011;2539;52.568;13.364;2022-12-08T15:42:26;13.70;;;11.03;;
5040;SDS011;2539;52.568;13.364;2022-12-08T15:44:52;11.80;;;10.10;;
5040;SDS011;2539;52.568;13.364;2022-12-08T15:47:19;12.87;;;10.30;;
5040;SDS011;2539;52.568;13.364;2022-12-08T15:49:47;13.80;;;11.03;;
5040;SDS011;2539;52.568;13.364;2022-12-08T15:52:16;16.40;;;12.20;;
5040;SDS011;2539;52.568;13.364;2022-12-08T15:54:47;16.03;;;12.73;;
5040;SDS011;2539;52.568;13.364;2022-12-08T15:57:18;13.57;;;11.50;;
5040;SDS011;2539;52.568;13.364;2022-12-08T15:59:49;15.10;;;13.27;;
5040;SDS011;2539;52.568;13.364;2022-12-08T16:02:17;18.10;;;14.17;;
5040;SDS011;2539;52.568;13.364;2022-12-08T16:04:44;15.37;;;11.77;;
5040;SDS011;2539;52.568;13.364;2022-12-08T16:07:27;20.20;;;13.93;;
5040;SDS011;2539;52.568;13.364;2022-12-08T16:09:54;19.30;;;13.97;;
5040;SDS011;2539;52.568;13.364;2022-12-08T16:12:22;15.27;;;11.30;;
5040;SDS011;2539;52.568;13.364;2022-12-08T16:15:09;16.17;;;12.17;;
5040;SDS011;2539;52.568;13.364;2022-12-08T16:17:37;15.37;;;12.53;;
5040;SDS011;2539;52.568;13.364;2022-12-08T16:20:06;15.70;;;12.40;;
5040;SDS011;2539;52.568;13.364;2022-12-08T16:22:36;16.70;;;12.93;;
5040;SDS011;2539;52.568;13.364;2022-12-08T16:25:03;15.43;;;12.00;;
5040;SDS011;2539;52.568;13.364;2022-12-08T16:27:30;21.10;;;15.20;;
5040;SDS011;2539;52.568;13.364;2022-12-08T16:29:58;17.50;;;12.80;;
5040;SDS011;2539;52.568;13.364;2022-12-08T16:32:25;18.30;;;14.00;;
5040;SDS011;2539;52.568;13.364;2022-12-08T16:34:52;16.80;;;13.93;;
5040;SDS011;2539;52.568;13.364;2022-12-08T16:37:20;14.53;;;12.63;;
5040;SDS011;2539;52.568;13.364;2022-12-08T16:39:48;13.30;;;11.87;;
5040;SDS011;2539;52.568;13.364;2022-12-08T16:42:16;12.90;;;11.13;;
5040;SDS011;2539;52.568;13.364;2022-12-08T16:45:09;18.50;;;13.43;;